< < Back
Terminal Aerodrome Forecast


Current Version              Previous Versions:   1  2  3  4  5  6  7  8  9  

Terminal Aerodrome Forecast

893
FTUS44 KBMX 291132
TAFBHM
TAF
KBHM 291132Z 2912/3012 12003KT P6SM VCSH SCT008 BKN045
      TEMPO 2912/2914 5SM BR BKN008
     FM291400 16004KT P6SM BKN250
     FM291700 16005KT P6SM VCTS BKN050CB
     FM300200 15003KT P6SM BKN100
      TEMPO 3010/3012 5SM BR=



Latest METAR

743
SAUS70 KWBC 300200 RRC
MTRBHM
METAR KBHM 300153Z 00000KT 10SM FEW110 SCT250 23/20 A3013 RMK AO2 SLP195
T02280200


USA.gov is the U.S. government's official web portal to all federal, state and local government web resources and services.